Time;durP1;ratioP1;P1;durP2;ratioP2;P2;SDS_P1;SDS_P2;PMS_P1;PMS_P2;Temp;Humidity;BMP_temperature;BMP_pressure;BME280_temperature;BME280_humidity;BME280_pressure;Samples;Min_cycle;Max_cycle;Signal;HPM_P1;HPM_P2
2024/01/25 09:41:53;;;;;;;9.13;2.87;;;8.80;99.90;;;;;;4321841;23;20249;-75
2024/01/25 09:44:21;;;;;;;14.67;3.10;;;8.80;99.90;;;;;;4898411;29;20346;-74
2024/01/25 09:46:48;;;;;;;10.67;3.33;;;9.00;99.90;;;;;;4926182;29;20236;-73
2024/01/25 09:49:14;;;;;;;8.53;2.93;;;9.20;99.90;;;;;;4914433;29;20312;-76
2024/01/25 09:51:42;;;;;;;9.00;3.07;;;9.30;99.90;;;;;;4918594;29;20217;-73
2024/01/25 09:54:10;;;;;;;12.87;3.30;;;9.40;99.90;;;;;;4918711;29;20237;-74
2024/01/25 09:56:37;;;;;;;8.30;3.30;;;9.60;99.90;;;;;;4919433;29;20240;-85
2024/01/25 09:59:05;;;;;;;14.37;3.17;;;9.80;99.90;;;;;;4926072;29;20237;-76
2024/01/25 10:01:32;;;;;;;16.77;3.50;;;10.00;99.90;;;;;;4920867;29;20281;-79
2024/01/25 10:03:59;;;;;;;17.10;3.60;;;10.10;99.90;;;;;;4911298;29;20266;-73
2024/01/25 10:06:26;;;;;;;10.13;3.47;;;10.40;99.90;;;;;;4899631;29;20688;-78
2024/01/25 10:08:54;;;;;;;8.77;2.83;;;10.60;99.90;;;;;;4899356;29;20321;-75
2024/01/25 10:11:21;;;;;;;15.97;3.63;;;10.70;99.90;;;;;;4899412;29;20309;-74
2024/01/25 10:13:50;;;;;;;11.63;3.27;;;10.70;99.90;;;;;;4899407;29;20589;-75
2024/01/25 10:16:19;;;;;;;11.07;3.03;;;10.70;99.90;;;;;;4899480;29;20305;-74
2024/01/25 10:18:48;;;;;;;10.57;2.83;;;10.80;99.90;;;;;;4899005;29;20789;-75
2024/01/25 10:21:16;;;;;;;9.23;2.70;;;10.80;99.90;;;;;;4899348;29;20250;-74
2024/01/25 10:23:45;;;;;;;9.67;3.00;;;10.80;99.90;;;;;;4898990;29;20238;-74
2024/01/25 10:26:12;;;;;;;9.87;2.83;;;10.80;99.90;;;;;;4898328;29;20216;-73
2024/01/25 10:28:39;;;;;;;12.43;2.87;;;10.70;99.90;;;;;;4898879;29;20284;-73
2024/01/25 10:31:06;;;;;;;13.73;2.67;;;10.90;99.90;;;;;;4898754;29;20690;-75
2024/01/25 10:33:34;;;;;;;9.10;2.57;;;11.00;99.90;;;;;;4898987;29;20246;-73
2024/01/25 10:36:02;;;;;;;7.53;2.83;;;10.90;99.90;;;;;;4899033;29;20241;-74
2024/01/25 10:38:32;;;;;;;7.40;2.80;;;10.90;99.90;;;;;;4897507;29;20571;-73
2024/01/25 10:41:00;;;;;;;13.00;3.83;;;11.00;99.90;;;;;;4914275;29;20624;-74
2024/01/25 10:43:27;;;;;;;10.83;2.83;;;11.10;99.90;;;;;;4917058;29;20708;-76
2024/01/25 10:45:58;;;;;;;9.10;2.53;;;11.00;99.90;;;;;;4919975;29;20201;-76
2024/01/25 10:48:29;;;;;;;9.13;2.70;;;11.00;99.90;;;;;;4930378;29;20225;-72
2024/01/25 10:50:59;;;;;;;7.87;2.40;;;10.80;99.90;;;;;;4913681;29;21040;-74
2024/01/25 10:53:27;;;;;;;9.37;3.10;;;10.60;99.90;;;;;;4915350;29;20213;-73
2024/01/25 10:55:54;;;;;;;6.43;2.60;;;10.60;99.90;;;;;;4915929;29;20506;-74
2024/01/25 10:58:22;;;;;;;7.33;2.20;;;10.40;99.90;;;;;;4927049;29;20661;-73
2024/01/25 11:00:53;;;;;;;7.33;2.37;;;10.40;99.90;;;;;;4914448;29;20637;-76
2024/01/25 11:03:20;;;;;;;9.40;2.47;;;10.50;99.90;;;;;;4919382;29;20327;-73
2024/01/25 11:05:49;;;;;;;7.93;2.27;;;10.50;99.90;;;;;;4897921;29;20206;-73
2024/01/25 11:08:21;;;;;;;6.97;2.43;;;10.50;99.90;;;;;;4918571;29;20264;-74
2024/01/25 11:10:51;;;;;;;12.80;3.20;;;10.70;99.90;;;;;;4928565;29;20216;-74
2024/01/25 11:13:27;;;;;;;7.37;2.53;;;10.70;99.90;;;;;;4934020;29;20620;-78
2024/01/25 11:15:54;;;;;;;11.63;2.40;;;10.80;99.90;;;;;;4897410;29;20207;-76
2024/01/25 11:18:21;;;;;;;7.07;2.37;;;10.80;99.90;;;;;;4908051;29;20320;-77
2024/01/25 11:20:48;;;;;;;6.50;2.53;;;10.70;99.90;;;;;;4914858;29;20313;-75
2024/01/25 11:23:17;;;;;;;8.00;2.90;;;10.80;99.90;;;;;;4914877;29;20279;-79
2024/01/25 11:25:48;;;;;;;8.43;2.20;;;10.80;99.90;;;;;;4915581;29;20292;-78
2024/01/25 11:28:16;;;;;;;10.67;3.03;;;10.80;99.90;;;;;;4915288;29;20252;-76
2024/01/25 11:30:44;;;;;;;10.73;2.70;;;10.90;99.90;;;;;;4915377;29;20237;-79
2024/01/25 11:33:10;;;;;;;11.53;2.93;;;11.00;99.90;;;;;;4902468;29;20210;-74
2024/01/25 11:35:37;;;;;;;8.47;2.50;;;10.80;99.90;;;;;;4930783;29;20299;-76
2024/01/25 11:38:05;;;;;;;11.43;2.17;;;10.80;99.90;;;;;;4915006;29;20257;-74
2024/01/25 11:40:32;;;;;;;6.20;2.20;;;10.50;99.90;;;;;;4915406;29;20216;-77
2024/01/25 11:43:00;;;;;;;4.07;2.00;;;10.60;99.90;;;;;;4913138;29;20233;-79
2024/01/25 11:45:27;;;;;;;8.20;1.77;;;10.70;99.90;;;;;;4914123;29;20212;-79
2024/01/25 11:47:54;;;;;;;10.53;2.57;;;10.70;99.90;;;;;;4910924;29;20300;-80
2024/01/25 11:50:22;;;;;;;10.37;2.27;;;10.90;99.90;;;;;;4914492;29;20623;-76
2024/01/25 11:52:50;;;;;;;6.47;1.90;;;11.00;99.90;;;;;;4915207;29;20575;-75
2024/01/25 11:55:17;;;;;;;6.57;2.03;;;11.10;99.90;;;;;;4915434;29;20210;-78
2024/01/25 11:57:44;;;;;;;7.73;2.17;;;11.10;99.90;;;;;;4913713;29;20760;-76
2024/01/25 12:00:15;;;;;;;6.73;1.70;;;11.10;99.90;;;;;;4909984;29;20292;-79
2024/01/25 12:02:43;;;;;;;6.17;2.43;;;11.10;99.90;;;;;;4908915;29;20206;-77
2024/01/25 12:05:12;;;;;;;10.03;2.53;;;11.10;99.90;;;;;;4912028;29;20213;-77
2024/01/25 12:07:40;;;;;;;7.07;2.03;;;11.10;99.90;;;;;;4910794;29;20300;-79
2024/01/25 12:10:09;;;;;;;6.90;1.70;;;11.10;99.90;;;;;;4913870;29;20201;-78
2024/01/25 12:12:36;;;;;;;6.80;2.10;;;11.10;99.90;;;;;;4910418;29;20465;-79
2024/01/25 12:15:07;;;;;;;5.77;1.50;;;11.10;99.90;;;;;;4913483;29;20218;-80
2024/01/25 12:17:38;;;;;;;6.77;2.10;;;11.00;99.90;;;;;;4913296;29;20201;-78
2024/01/25 12:20:10;;;;;;;3.47;1.70;;;10.90;99.90;;;;;;4914049;29;20317;-80
2024/01/25 12:22:38;;;;;;;6.03;2.10;;;10.90;99.90;;;;;;4911306;29;20257;-78
2024/01/25 12:25:09;;;;;;;12.60;2.97;;;10.80;99.90;;;;;;4914563;29;20593;-78
2024/01/25 12:27:37;;;;;;;7.10;2.50;;;10.70;99.90;;;;;;4911240;29;20734;-79
2024/01/25 12:30:05;;;;;;;5.50;1.70;;;10.70;99.90;;;;;;4913941;29;20233;-78
2024/01/25 12:32:31;;;;;;;6.33;2.03;;;10.60;99.90;;;;;;4908791;29;20233;-78
2024/01/25 12:35:02;;;;;;;6.03;2.20;;;10.70;99.90;;;;;;4913783;29;20206;-78
2024/01/25 12:37:28;;;;;;;6.20;1.80;;;10.70;99.90;;;;;;4914359;29;20286;-79
2024/01/25 12:39:56;;;;;;;6.00;2.13;;;10.80;99.90;;;;;;4914871;29;20658;-77
2024/01/25 12:42:23;;;;;;;8.50;2.60;;;10.70;99.90;;;;;;4914146;29;20212;-77
2024/01/25 12:44:53;;;;;;;6.23;1.80;;;10.70;99.90;;;;;;4914730;29;20297;-76
2024/01/25 12:47:20;;;;;;;9.63;1.93;;;10.60;99.90;;;;;;4914024;29;20943;-77
2024/01/25 12:49:47;;;;;;;8.30;2.10;;;10.60;99.90;;;;;;4917138;29;20353;-81
2024/01/25 12:52:16;;;;;;;7.20;2.80;;;10.70;99.90;;;;;;4917512;29;20312;-80
2024/01/25 12:54:43;;;;;;;4.27;2.50;;;10.70;99.90;;;;;;4917502;29;20248;-76
2024/01/25 12:57:10;;;;;;;5.33;1.80;;;10.60;99.90;;;;;;4917703;29;20300;-77
2024/01/25 12:59:38;;;;;;;6.33;1.73;;;10.50;99.90;;;;;;4914910;29;20244;-84
2024/01/25 13:02:06;;;;;;;10.53;2.10;;;10.50;99.90;;;;;;4918118;29;20206;-79
2024/01/25 13:04:33;;;;;;;5.80;2.20;;;10.50;99.90;;;;;;4914393;29;20241;-83
2024/01/25 13:07:00;;;;;;;5.70;1.80;;;10.60;99.90;;;;;;4930879;29;20213;-78
2024/01/25 13:09:29;;;;;;;7.10;1.90;;;10.60;99.90;;;;;;4918056;29;20245;-82
2024/01/25 13:11:56;;;;;;;4.23;1.50;;;10.60;99.90;;;;;;4920032;29;20206;-81
2024/01/25 13:14:23;;;;;;;3.03;1.80;;;10.60;99.90;;;;;;4916319;29;20209;-80
2024/01/25 13:16:50;;;;;;;5.53;1.70;;;10.80;99.90;;;;;;4916379;29;20216;-81
2024/01/25 13:19:17;;;;;;;7.13;1.70;;;10.90;99.90;;;;;;4918441;29;20230;-81
2024/01/25 13:21:43;;;;;;;3.63;1.73;;;11.00;99.90;;;;;;4919476;29;20220;-77
2024/01/25 13:24:10;;;;;;;2.80;1.50;;;11.10;99.90;;;;;;4919198;29;20233;-78
2024/01/25 13:26:39;;;;;;;4.13;1.30;;;11.10;99.90;;;;;;4919574;29;20621;-78
2024/01/25 13:29:05;;;;;;;6.70;1.47;;;11.20;99.90;;;;;;4915636;29;20285;-79
2024/01/25 13:31:32;;;;;;;4.63;1.30;;;11.30;99.90;;;;;;4918588;29;20246;-83
2024/01/25 13:33:59;;;;;;;6.33;1.33;;;11.20;99.90;;;;;;4917650;29;20273;-79
2024/01/25 13:36:26;;;;;;;4.20;1.43;;;11.40;99.90;;;;;;4918887;29;20294;-79
2024/01/25 13:38:53;;;;;;;3.13;1.30;;;11.30;99.90;;;;;;4915334;29;20273;-79
2024/01/25 13:41:20;;;;;;;2.50;1.00;;;11.50;99.90;;;;;;4918563;29;20205;-79
2024/01/25 13:43:48;;;;;;;5.20;1.20;;;11.50;99.90;;;;;;4917344;29;20320;-82
2024/01/25 13:46:15;;;;;;;5.07;1.53;;;11.50;99.90;;;;;;4916017;29;20206;-81
2024/01/25 13:48:42;;;;;;;4.83;1.43;;;11.30;99.90;;;;;;4915899;29;20304;-78
2024/01/25 13:51:09;;;;;;;4.13;1.30;;;11.30;99.90;;;;;;4917960;29;20495;-80
2024/01/25 13:53:36;;;;;;;1.60;1.20;;;11.30;99.90;;;;;;4913354;29;20202;-81
2024/01/25 13:56:03;;;;;;;1.80;1.40;;;11.30;99.90;;;;;;4933581;29;20215;-78
2024/01/25 13:58:30;;;;;;;3.80;1.50;;;11.40;99.90;;;;;;4912081;29;20237;-81
2024/01/25 14:00:58;;;;;;;7.17;1.70;;;11.50;99.90;;;;;;4904866;29;20212;-82
2024/01/25 14:03:25;;;;;;;5.50;1.90;;;11.50;99.90;;;;;;4916594;29;20269;-82
2024/01/25 14:05:52;;;;;;;6.43;1.90;;;11.50;99.90;;;;;;4899497;29;20297;-80
2024/01/25 14:08:19;;;;;;;2.63;1.47;;;11.40;99.90;;;;;;4899726;29;20222;-79
2024/01/25 14:10:46;;;;;;;3.93;1.70;;;11.30;99.90;;;;;;4907190;29;20202;-79
2024/01/25 14:13:13;;;;;;;3.37;1.67;;;11.30;99.90;;;;;;4900009;29;20290;-82
2024/01/25 14:15:40;;;;;;;2.77;1.60;;;11.30;99.90;;;;;;4899524;29;20297;-81
2024/01/25 14:18:09;;;;;;;2.83;1.27;;;11.30;99.90;;;;;;4917817;29;20301;-81
2024/01/25 14:20:37;;;;;;;3.40;1.83;;;11.30;99.90;;;;;;4924112;29;20676;-81
2024/01/25 14:23:04;;;;;;;2.17;1.40;;;11.40;99.90;;;;;;4916843;29;20609;-80
2024/01/25 14:25:31;;;;;;;3.33;1.83;;;11.40;99.90;;;;;;4917912;29;20327;-81
2024/01/25 14:27:58;;;;;;;4.80;1.77;;;11.40;99.90;;;;;;4917315;29;20265;-80
2024/01/25 14:30:25;;;;;;;4.23;1.53;;;11.20;99.90;;;;;;4917853;29;20672;-82
2024/01/25 14:32:52;;;;;;;4.20;1.70;;;11.10;99.90;;;;;;4902374;29;20297;-80
2024/01/25 14:35:20;;;;;;;5.10;1.87;;;11.00;99.90;;;;;;4899265;29;20673;-81
2024/01/25 14:37:47;;;;;;;2.87;1.93;;;11.00;99.90;;;;;;4899085;29;20210;-81
2024/01/25 14:40:14;;;;;;;4.00;1.83;;;11.00;99.90;;;;;;4903286;29;20246;-79
2024/01/25 14:42:41;;;;;;;4.50;2.10;;;11.10;99.90;;;;;;4905036;29;20233;-80
2024/01/25 14:45:08;;;;;;;4.80;1.80;;;11.20;99.90;;;;;;4900787;29;20579;-80
2024/01/25 14:47:35;;;;;;;6.67;2.30;;;11.20;99.90;;;;;;4922768;29;20201;-79
2024/01/25 14:50:02;;;;;;;4.57;2.67;;;11.10;99.90;;;;;;4930728;29;20296;-79
2024/01/25 14:52:33;;;;;;;3.33;2.07;;;11.10;99.90;;;;;;4921665;29;20203;-80
2024/01/25 14:55:00;;;;;;;4.77;2.53;;;11.10;99.90;;;;;;4928493;29;20197;-78
2024/01/25 14:57:27;;;;;;;5.97;2.50;;;11.00;99.90;;;;;;4916826;29;20210;-80
2024/01/25 14:59:54;;;;;;;5.43;2.20;;;10.90;99.90;;;;;;4899792;29;20230;-80
2024/01/25 15:02:21;;;;;;;5.13;2.83;;;10.90;99.90;;;;;;4917909;29;20213;-80
2024/01/25 15:04:48;;;;;;;5.43;3.13;;;10.90;99.90;;;;;;4917788;29;20669;-80
2024/01/25 15:07:15;;;;;;;9.37;4.57;;;10.90;99.90;;;;;;4917950;29;20760;-80
2024/01/25 15:09:44;;;;;;;7.07;2.97;;;10.90;99.90;;;;;;4917620;29;20234;-80
2024/01/25 15:12:11;;;;;;;6.57;2.47;;;10.90;99.90;;;;;;4917393;29;20213;-80
2024/01/25 15:14:37;;;;;;;7.53;2.60;;;10.80;99.90;;;;;;4917409;29;20316;-79
2024/01/25 15:17:05;;;;;;;7.90;2.60;;;10.80;99.90;;;;;;4917787;29;20549;-81
2024/01/25 15:19:31;;;;;;;4.97;2.63;;;10.80;99.90;;;;;;4917451;29;20225;-80
2024/01/25 15:21:58;;;;;;;4.77;2.23;;;10.90;99.90;;;;;;4917658;29;20237;-79
2024/01/25 15:24:26;;;;;;;4.20;2.13;;;10.90;99.90;;;;;;4917457;29;20319;-80
2024/01/25 15:26:54;;;;;;;5.83;2.37;;;10.80;99.90;;;;;;4917415;29;20249;-78
2024/01/25 15:29:21;;;;;;;7.97;2.73;;;10.90;99.90;;;;;;4917277;29;20229;-81
2024/01/25 15:31:48;;;;;;;4.43;2.13;;;10.80;99.90;;;;;;4917451;29;20244;-80
2024/01/25 15:34:15;;;;;;;5.20;2.73;;;10.80;99.90;;;;;;4917304;29;20218;-81
2024/01/25 15:36:44;;;;;;;4.07;2.53;;;10.80;99.90;;;;;;4917487;29;20660;-81
2024/01/25 15:39:11;;;;;;;3.73;1.97;;;10.90;99.90;;;;;;4917702;29;20288;-81
2024/01/25 15:41:38;;;;;;;4.67;2.27;;;10.90;99.90;;;;;;4917229;29;20213;-82
2024/01/25 15:44:06;;;;;;;5.03;2.50;;;10.90;99.90;;;;;;4916983;29;20336;-81
2024/01/25 15:46:34;;;;;;;4.73;2.10;;;10.80;99.90;;;;;;4917162;29;20217;-80
2024/01/25 15:49:01;;;;;;;7.50;2.67;;;10.80;99.90;;;;;;4917312;29;20232;-80
2024/01/25 15:51:28;;;;;;;4.77;2.23;;;10.80;99.90;;;;;;4917353;29;20301;-80
2024/01/25 15:53:55;;;;;;;6.47;2.63;;;10.80;99.90;;;;;;4916890;29;20292;-81
2024/01/25 15:56:22;;;;;;;4.70;2.20;;;10.80;99.90;;;;;;4916724;29;20669;-80
2024/01/25 15:58:48;;;;;;;4.97;2.53;;;10.70;99.90;;;;;;4916980;29;20229;-80
2024/01/25 16:01:17;;;;;;;5.37;2.47;;;10.60;99.90;;;;;;4917072;29;20242;-81
2024/01/25 16:03:44;;;;;;;3.47;2.20;;;10.70;99.90;;;;;;4916884;29;20305;-81
2024/01/25 16:06:11;;;;;;;5.57;2.70;;;10.70;99.90;;;;;;4917166;29;20252;-81
2024/01/25 16:08:37;;;;;;;9.43;2.77;;;10.70;99.90;;;;;;4917036;29;20738;-81
2024/01/25 16:11:04;;;;;;;6.57;2.93;;;10.70;99.90;;;;;;4916592;29;20212;-80
2024/01/25 16:13:31;;;;;;;7.17;3.47;;;10.70;99.90;;;;;;4919733;29;20232;-80
2024/01/25 16:15:59;;;;;;;6.93;3.37;;;10.70;99.90;;;;;;4917010;29;20240;-81
2024/01/25 16:18:27;;;;;;;6.23;2.80;;;10.80;99.90;;;;;;4917062;29;20261;-82
2024/01/25 16:20:55;;;;;;;10.33;4.53;;;10.80;99.90;;;;;;4916853;29;20209;-81
2024/01/25 16:23:21;;;;;;;4.93;2.43;;;10.80;99.90;;;;;;4917980;29;20727;-80
2024/01/25 16:25:48;;;;;;;6.97;2.50;;;10.70;99.90;;;;;;4920494;29;20241;-81
2024/01/25 16:28:15;;;;;;;9.03;2.80;;;10.70;99.90;;;;;;4920589;29;20234;-81
2024/01/25 16:30:42;;;;;;;3.93;2.67;;;10.80;99.90;;;;;;4920427;29;20300;-79
2024/01/25 16:33:09;;;;;;;6.27;3.43;;;10.90;99.90;;;;;;4920343;29;20241;-81
2024/01/25 16:35:38;;;;;;;5.60;2.73;;;10.90;99.90;;;;;;4920239;29;20201;-79
2024/01/25 16:38:05;;;;;;;5.53;2.73;;;10.90;99.90;;;;;;4920373;29;20236;-82
2024/01/25 16:40:32;;;;;;;7.97;3.20;;;10.90;99.90;;;;;;4920299;29;20565;-81
2024/01/25 16:42:59;;;;;;;5.87;3.13;;;10.90;99.90;;;;;;4920226;29;20220;-79
2024/01/25 16:45:26;;;;;;;8.77;3.73;;;10.90;99.90;;;;;;4920082;29;20241;-80
2024/01/25 16:47:53;;;;;;;8.73;3.07;;;10.90;99.90;;;;;;4920268;29;20296;-81
2024/01/25 16:50:20;;;;;;;7.90;3.53;;;11.10;99.90;;;;;;4920252;29;20213;-80
2024/01/25 16:52:49;;;;;;;6.03;3.23;;;11.10;99.90;;;;;;4920435;29;20312;-81
2024/01/25 16:55:16;;;;;;;5.37;2.93;;;11.10;99.90;;;;;;4920328;29;20209;-81
2024/01/25 16:57:43;;;;;;;5.03;2.97;;;11.00;99.90;;;;;;4920022;29;20219;-81
2024/01/25 17:00:11;;;;;;;6.87;2.93;;;10.90;99.90;;;;;;4920044;29;20240;-80
2024/01/25 17:02:38;;;;;;;10.70;3.27;;;10.90;99.90;;;;;;4920136;29;20727;-81
2024/01/25 17:05:05;;;;;;;5.80;3.17;;;10.90;99.90;;;;;;4920225;29;20237;-80
2024/01/25 17:07:32;;;;;;;6.90;3.10;;;10.90;99.90;;;;;;4920575;29;20269;-81
2024/01/25 17:10:00;;;;;;;6.73;3.23;;;10.90;99.90;;;;;;4919699;29;20238;-79
2024/01/25 17:12:27;;;;;;;6.30;2.97;;;10.80;99.90;;;;;;4919691;29;20270;-81
2024/01/25 17:14:54;;;;;;;8.17;3.33;;;10.80;99.90;;;;;;4920434;29;20260;-80
2024/01/25 17:17:21;;;;;;;6.37;3.50;;;10.80;99.90;;;;;;4919533;29;20296;-80
2024/01/25 17:19:48;;;;;;;12.67;3.80;;;10.70;99.90;;;;;;4919500;29;20233;-80
2024/01/25 17:22:15;;;;;;;10.37;3.93;;;10.70;99.90;;;;;;4919732;29;20216;-80
2024/01/25 17:24:42;;;;;;;8.40;3.80;;;10.80;99.90;;;;;;4919180;29;20237;-80
2024/01/25 17:27:10;;;;;;;11.63;4.57;;;10.80;99.90;;;;;;4919288;29;20261;-81
2024/01/25 17:29:37;;;;;;;11.10;4.50;;;10.80;99.90;;;;;;4918854;29;20236;-81
2024/01/25 17:32:05;;;;;;;8.57;4.03;;;10.90;99.90;;;;;;4918951;29;20218;-80
2024/01/25 17:34:32;;;;;;;10.77;4.20;;;10.90;99.90;;;;;;4910722;29;20209;-79
2024/01/25 17:36:59;;;;;;;10.73;4.70;;;11.00;99.90;;;;;;4919581;29;20216;-80
2024/01/25 17:39:27;;;;;;;9.10;4.03;;;10.90;99.90;;;;;;4914197;29;20228;-81
2024/01/25 17:41:54;;;;;;;17.30;5.93;;;10.90;99.90;;;;;;4923965;29;20235;-82
2024/01/25 17:44:22;;;;;;;12.07;5.40;;;10.90;99.90;;;;;;4915988;29;20816;-79
2024/01/25 17:46:49;;;;;;;13.93;4.60;;;10.90;99.90;;;;;;4920313;29;20221;-79
2024/01/25 17:49:16;;;;;;;10.97;4.87;;;11.00;99.90;;;;;;4918608;29;20274;-79
2024/01/25 17:51:43;;;;;;;9.73;5.20;;;10.90;99.90;;;;;;4918326;29;20213;-73
2024/01/25 17:54:11;;;;;;;9.50;4.20;;;11.00;99.90;;;;;;4905781;29;20238;-79
2024/01/25 17:56:39;;;;;;;10.07;4.23;;;11.00;99.90;;;;;;4898753;29;20222;-83
2024/01/25 17:59:07;;;;;;;12.07;4.67;;;11.00;99.90;;;;;;4909658;29;20289;-74
2024/01/25 18:01:35;;;;;;;9.90;5.03;;;11.10;99.90;;;;;;4918147;29;20266;-77
2024/01/25 18:04:02;;;;;;;10.67;4.53;;;11.20;99.90;;;;;;4908137;29;20307;-86
2024/01/25 18:06:29;;;;;;;9.17;4.50;;;11.20;99.90;;;;;;4899795;29;20654;-81
2024/01/25 18:08:56;;;;;;;10.70;4.17;;;11.10;99.90;;;;;;4898940;29;20237;-76
2024/01/25 18:11:23;;;;;;;10.43;4.00;;;11.10;99.90;;;;;;4908467;29;20214;-76
2024/01/25 18:13:50;;;;;;;13.10;4.57;;;11.10;99.90;;;;;;4908941;29;20214;-73
2024/01/25 18:16:17;;;;;;;11.17;4.13;;;11.10;99.90;;;;;;4898216;29;20620;-74
2024/01/25 18:18:46;;;;;;;9.83;3.77;;;11.10;99.90;;;;;;4897882;29;20287;-78
2024/01/25 18:21:13;;;;;;;17.27;5.10;;;11.10;99.90;;;;;;4904052;29;20289;-77
2024/01/25 18:23:40;;;;;;;7.97;3.90;;;11.10;99.90;;;;;;4916410;29;20673;-79
2024/01/25 18:26:07;;;;;;;11.17;3.87;;;11.10;99.90;;;;;;4916712;29;20272;-73
2024/01/25 18:28:34;;;;;;;9.30;4.00;;;11.10;99.90;;;;;;4915450;29;20261;-73
2024/01/25 18:31:02;;;;;;;8.80;3.73;;;11.10;99.90;;;;;;4919361;29;20699;-74
2024/01/25 18:33:29;;;;;;;10.93;4.20;;;11.00;99.90;;;;;;4917102;29;20308;-73
2024/01/25 18:35:57;;;;;;;9.20;4.23;;;11.00;99.90;;;;;;4919329;29;20585;-73
2024/01/25 18:38:24;;;;;;;15.37;4.77;;;11.00;99.90;;;;;;4921095;29;20264;-76
2024/01/25 18:40:51;;;;;;;10.00;4.50;;;11.00;99.90;;;;;;4922698;29;20206;-78
2024/01/25 18:43:19;;;;;;;8.23;4.40;;;11.00;99.90;;;;;;4921221;29;20316;-76
2024/01/25 18:45:46;;;;;;;9.23;4.47;;;11.00;99.90;;;;;;4920772;29;20565;-73
2024/01/25 18:48:13;;;;;;;12.60;4.33;;;11.00;99.90;;;;;;4918054;29;20281;-73
2024/01/25 18:50:40;;;;;;;10.10;3.83;;;10.90;99.90;;;;;;4917618;29;20248;-74
2024/01/25 18:53:08;;;;;;;8.13;3.87;;;10.90;99.90;;;;;;4917736;29;20210;-73
2024/01/25 18:55:36;;;;;;;9.40;4.40;;;10.90;99.90;;;;;;4917842;29;20218;-77
2024/01/25 18:58:03;;;;;;;9.87;4.27;;;11.00;99.90;;;;;;4918728;29;20296;-73
2024/01/25 19:00:31;;;;;;;10.30;4.37;;;11.00;99.90;;;;;;4917109;29;20300;-74
2024/01/25 19:02:58;;;;;;;10.23;4.30;;;11.00;99.90;;;;;;4917029;29;20209;-75
2024/01/25 19:05:26;;;;;;;8.53;4.00;;;11.00;99.90;;;;;;4917111;29;20244;-74
2024/01/25 19:07:54;;;;;;;11.80;4.17;;;11.00;99.90;;;;;;4917025;29;20679;-75
2024/01/25 19:10:22;;;;;;;8.40;4.13;;;11.00;99.90;;;;;;4929386;29;20749;-74
2024/01/25 19:12:49;;;;;;;10.13;4.17;;;11.00;99.90;;;;;;4904475;29;20676;-78
2024/01/25 19:15:17;;;;;;;10.63;3.20;;;11.00;99.90;;;;;;4916764;29;20228;-73
2024/01/25 19:17:44;;;;;;;6.47;3.10;;;11.10;99.90;;;;;;4916700;29;20206;-75
2024/01/25 19:20:12;;;;;;;8.33;3.20;;;11.00;99.90;;;;;;4916854;29;20247;-73
2024/01/25 19:22:39;;;;;;;9.27;3.77;;;11.00;99.90;;;;;;4916512;29;20212;-73
2024/01/25 19:25:07;;;;;;;7.83;2.60;;;11.00;99.90;;;;;;4917623;29;20264;-81
2024/01/25 19:27:36;;;;;;;4.47;2.00;;;11.00;99.90;;;;;;4916901;29;20661;-80
2024/01/25 19:30:03;;;;;;;4.67;2.40;;;11.00;99.90;;;;;;4916358;29;20730;-78
2024/01/25 19:32:30;;;;;;;6.87;2.53;;;11.00;99.90;;;;;;4917269;29;20201;-80
2024/01/25 19:34:57;;;;;;;5.33;2.83;;;11.00;99.90;;;;;;4916646;29;20202;-78
2024/01/25 19:37:24;;;;;;;4.80;2.10;;;11.00;99.90;;;;;;4916805;29;20241;-80
2024/01/25 19:39:51;;;;;;;3.63;2.63;;;11.00;99.90;;;;;;4916670;29;20798;-80
2024/01/25 19:42:18;;;;;;;4.13;2.43;;;11.00;99.90;;;;;;4912659;29;20765;-75
2024/01/25 19:44:46;;;;;;;8.13;2.50;;;11.00;99.90;;;;;;4917955;29;20764;-79
2024/01/25 19:47:13;;;;;;;9.37;3.00;;;11.00;99.90;;;;;;4916441;29;20284;-80
2024/01/25 19:49:40;;;;;;;5.30;2.70;;;11.00;99.90;;;;;;4916509;29;20233;-80
2024/01/25 19:52:07;;;;;;;8.97;3.20;;;11.00;99.90;;;;;;4916236;29;20225;-80
2024/01/25 19:54:35;;;;;;;5.73;3.00;;;11.10;99.90;;;;;;4916696;29;20292;-79
2024/01/25 19:57:03;;;;;;;6.40;2.63;;;11.10;99.90;;;;;;4916613;29;20308;-79
2024/01/25 19:59:30;;;;;;;7.17;2.77;;;11.00;99.90;;;;;;4916596;29;20231;-80
2024/01/25 20:01:59;;;;;;;6.20;2.93;;;11.00;99.90;;;;;;4916736;29;20213;-80
2024/01/25 20:04:26;;;;;;;5.43;2.60;;;11.00;99.90;;;;;;4916672;29;20205;-80
2024/01/25 20:06:53;;;;;;;7.20;2.90;;;11.00;99.90;;;;;;4916676;29;20233;-78
2024/01/25 20:09:22;;;;;;;5.70;2.63;;;11.00;99.90;;;;;;4916504;29;20760;-81
2024/01/25 20:11:49;;;;;;;5.13;3.23;;;11.00;99.90;;;;;;4916801;29;20399;-81
2024/01/25 20:14:15;;;;;;;9.93;3.03;;;11.00;99.90;;;;;;4916656;29;20230;-80
2024/01/25 20:16:42;;;;;;;6.37;2.60;;;11.00;99.90;;;;;;4917082;29;20210;-79
2024/01/25 20:19:10;;;;;;;6.57;2.60;;;11.00;99.90;;;;;;4916358;29;20748;-79
2024/01/25 20:21:37;;;;;;;5.47;2.37;;;11.00;99.90;;;;;;4916753;29;20210;-79
2024/01/25 20:24:05;;;;;;;6.60;2.80;;;11.00;99.90;;;;;;4914923;29;20205;-78
2024/01/25 20:26:31;;;;;;;5.00;2.67;;;11.00;99.90;;;;;;4916560;29;20237;-79
2024/01/25 20:28:58;;;;;;;5.87;2.97;;;11.00;99.90;;;;;;4916530;29;20649;-79
2024/01/25 20:31:25;;;;;;;4.87;2.83;;;11.10;99.90;;;;;;4916172;29;20209;-79
2024/01/25 20:33:52;;;;;;;7.77;3.30;;;11.10;99.90;;;;;;4915973;29;20683;-77
2024/01/25 20:36:20;;;;;;;8.63;3.10;;;11.10;99.90;;;;;;4916498;29;20210;-80
2024/01/25 20:38:47;;;;;;;7.37;3.40;;;11.10;99.90;;;;;;4916287;29;20559;-80
2024/01/25 20:41:14;;;;;;;9.73;2.77;;;11.20;99.90;;;;;;4916259;29;20210;-79
2024/01/25 20:43:43;;;;;;;4.83;2.80;;;11.10;99.90;;;;;;4915615;29;20218;-76
2024/01/25 20:46:11;;;;;;;7.97;3.50;;;11.10;99.90;;;;;;4916080;29;20781;-75
2024/01/25 20:48:38;;;;;;;6.60;2.73;;;11.20;99.90;;;;;;4903585;29;20236;-76
2024/01/25 20:51:05;;;;;;;5.43;2.90;;;11.20;99.90;;;;;;4915946;29;20292;-79
2024/01/25 20:53:33;;;;;;;7.73;3.27;;;11.20;99.90;;;;;;4915891;29;20244;-79
2024/01/25 20:56:00;;;;;;;5.60;2.93;;;11.10;99.90;;;;;;4916006;29;20669;-75
2024/01/25 20:58:27;;;;;;;4.83;2.77;;;11.20;99.90;;;;;;4916021;29;20239;-77
2024/01/25 21:00:54;;;;;;;5.17;2.73;;;11.20;99.90;;;;;;4915584;29;20660;-77
2024/01/25 21:03:22;;;;;;;6.33;2.97;;;11.20;99.90;;;;;;4916198;29;20217;-80
2024/01/25 21:05:50;;;;;;;7.57;2.97;;;11.30;99.90;;;;;;4915989;29;20230;-78
2024/01/25 21:08:17;;;;;;;6.40;3.10;;;11.30;99.90;;;;;;4916235;29;20338;-79
2024/01/25 21:10:46;;;;;;;4.53;2.43;;;11.30;99.90;;;;;;4918960;29;20210;-79
2024/01/25 21:13:13;;;;;;;3.43;2.20;;;11.20;99.90;;;;;;4919837;29;20213;-75
2024/01/25 21:15:40;;;;;;;4.33;2.33;;;11.30;99.90;;;;;;4918973;29;20724;-76
2024/01/25 21:18:07;;;;;;;3.53;2.50;;;11.30;99.90;;;;;;4919060;29;20257;-75
2024/01/25 21:20:35;;;;;;;7.30;2.20;;;11.20;99.90;;;;;;4916389;29;20258;-77
2024/01/25 21:23:01;;;;;;;6.00;1.90;;;11.30;99.90;;;;;;4917225;29;20849;-79
2024/01/25 21:25:28;;;;;;;2.77;2.00;;;11.30;99.90;;;;;;4918485;29;20308;-80
2024/01/25 21:27:56;;;;;;;3.90;2.00;;;11.40;99.90;;;;;;4918313;29;20677;-80
2024/01/25 21:30:23;;;;;;;4.07;2.37;;;11.30;99.90;;;;;;4918626;29;20565;-80
2024/01/25 21:32:50;;;;;;;5.33;2.23;;;11.30;99.90;;;;;;4919163;29;20216;-76
2024/01/25 21:35:17;;;;;;;4.50;2.00;;;11.30;99.90;;;;;;4918626;29;20209;-77
2024/01/25 21:37:44;;;;;;;2.77;1.67;;;11.40;99.90;;;;;;4918454;29;20565;-77
2024/01/25 21:40:11;;;;;;;4.67;1.77;;;11.40;99.90;;;;;;4918776;29;20216;-80
2024/01/25 21:42:38;;;;;;;3.63;2.00;;;11.40;99.90;;;;;;4918788;29;20728;-79
2024/01/25 21:45:07;;;;;;;4.60;2.00;;;11.40;99.90;;;;;;4918008;29;20752;-80
2024/01/25 21:47:34;;;;;;;2.97;1.77;;;11.40;99.90;;;;;;4918458;29;20320;-78
2024/01/25 21:50:03;;;;;;;3.90;1.60;;;11.40;99.90;;;;;;4917957;29;20235;-74
2024/01/25 21:52:30;;;;;;;3.50;1.63;;;11.40;99.90;;;;;;4918130;29;20268;-74
2024/01/25 21:54:57;;;;;;;4.07;1.73;;;11.40;99.90;;;;;;4918242;29;20622;-78
2024/01/25 21:57:24;;;;;;;3.23;1.80;;;11.40;99.90;;;;;;4918070;29;20224;-74
2024/01/25 21:59:50;;;;;;;2.70;1.60;;;11.40;99.90;;;;;;4928110;29;20224;-74
2024/01/25 22:02:19;;;;;;;4.67;1.60;;;11.50;99.90;;;;;;4921399;29;20210;-75
2024/01/25 22:04:46;;;;;;;4.53;1.90;;;11.40;99.90;;;;;;4918101;29;20212;-80
2024/01/25 22:07:13;;;;;;;4.33;1.77;;;11.40;99.90;;;;;;4917767;29;20233;-75
2024/01/25 22:09:40;;;;;;;4.03;2.13;;;11.40;99.90;;;;;;4917962;29;20252;-74
2024/01/25 22:12:08;;;;;;;4.77;1.70;;;11.40;99.90;;;;;;4917760;29;20206;-77
2024/01/25 22:14:35;;;;;;;2.10;1.60;;;11.40;99.90;;;;;;4917821;29;20230;-76
2024/01/25 22:17:02;;;;;;;3.33;1.70;;;11.40;99.90;;;;;;4917872;29;20212;-76
